Terminal Aerodrome Forecast
Issued by NWS

Home | Current Version | Previous Version | Text Only | Print | Product List | Glossary On
Versions: 1 2 3 4 5 6 7 8 9 10 11 12 13 14 15 16 17 18 19 20 21 22 23 24 25 26 27 28 29 30 31 32 33 34
000
FTUS43 KDMX 182329
TAFOTM
TAF
KOTM 182329Z 1900/1924 13006KT P6SM SKC
     FM191000 14006KT 5SM BR SCT025
     FM191400 17011G18KT P6SM BKN035
     FM192300 16008KT P6SM SCT040=

USA.gov is the U.S. government's official web portal to all federal, state and local government web resources and services.